Latest Weather Observations for Tuggeranong

IDN60901

Issued at 9:11 am EST Tuesday 3 May 2016 (issued every 10 minutes, with the page automatically refreshed every 10 minutes)

About weather observations | Map of Canberra area stations | Latest observations for Canberra area | Other Formats
Station Details ID: 070339 Name: TUGGERANONG (ISABELLA PLAINS) AWS Lat: -35.42 Lon: 149.09 Height: 586.7 m
Data from the previous 72 hours. | See also: Recent months at Tuggeranong
Date/Time
EST
Tmp

°C
App
Tmp
°C
Dew
Point
°C
Rel
Hum
%
Delta-T

°C
Wind Press
QNH
hPa
Press
MSL
hPa
Rain
since
9 am
mm
Dir
 
Spd
km/h
Gust
km/h
Spd
kts
Gust
kts
03/09:00am 13.1 8.7 4.8 57 4.0 NW 17 26 9 14 1011.1 1011.2 0.0
03/08:30am 12.1 7.6 4.3 59 3.6 NW 17 30 9 16 1011.3 1011.4 0.0
03/08:00am 11.1 7.0 4.1 62 3.2 NW 15 24 8 13 1011.5 1011.6 0.0
03/07:30am 10.2 6.4 3.9 65 2.9 NNW 13 20 7 11 1011.3 1011.4 0.0
03/07:00am 8.3 5.7 3.2 70 2.3 NNW 6 9 3 5 1011.5 1011.6 0.0
03/06:30am 8.8 5.2 3.2 68 2.5 NNW 11 19 6 10 1011.5 1011.6 0.0
03/06:00am 7.1 3.9 2.8 74 1.9 W 9 15 5 8 1011.6 1011.7 0.0
03/05:30am 5.1 2.3 2.3 82 1.2 SW 6 11 3 6 1011.6 1011.7 0.0
03/05:00am 6.1 4.0 2.0 75 1.7 ENE 2 7 1 4 1011.7 1011.8 0.0
03/04:30am 6.9 3.2 2.6 74 1.8 N 11 17 6 9 1011.8 1011.9 0.0
03/04:00am 7.6 4.0 2.7 71 2.1 NNE 11 15 6 8 1011.8 1011.9 0.0
03/03:30am 7.9 4.6 2.4 68 2.4 N 9 15 5 8 1011.9 1012.0 0.0
03/03:00am 8.4 4.4 2.8 68 2.5 N 13 17 7 9 1012.2 1012.2 0.0
03/02:30am 8.0 4.7 2.5 68 2.4 N 9 17 5 9 1012.8 1012.9 0.0
03/02:00am 8.4 5.1 2.4 66 2.6 NNW 9 13 5 7 1013.2 1013.3 0.0
03/01:30am 7.8 4.5 2.3 68 2.4 NNW 9 13 5 7 1013.6 1013.7 0.0
03/01:00am 7.7 4.3 2.0 67 2.4 N 9 13 5 7 1014.0 1014.1 0.0
03/12:30am 8.1 4.3 1.9 65 2.7 N 11 17 6 9 1014.2 1014.3 0.0
03/12:00am 9.3 5.5 1.5 58 3.3 NE 11 17 6 9 1014.3 1014.4 0.0
 
Date/Time
EST
Tmp

°C
App
Tmp
°C
Dew
Point
°C
Rel
Hum
%
Delta-T

°C
Wind Press
QNH
hPa
Press
MSL
hPa
Rain
since
9 am
mm
Dir
 
Spd
km/h
Gust
km/h
Spd
kts
Gust
kts
02/11:30pm 9.8 5.6 1.7 57 3.5 N 13 17 7 9 1014.7 1014.8 0.0
02/11:00pm 8.6 4.8 1.7 62 3.0 NNW 11 17 6 9 1014.5 1014.6 0.0
02/10:30pm 8.0 4.5 1.4 63 2.8 NW 9 15 5 8 1014.8 1014.9 0.0
02/10:00pm 7.2 4.2 1.7 68 2.3 NW 7 11 4 6 1015.1 1015.2 0.0
02/09:30pm 7.2 4.1 1.5 67 2.4 ESE 7 9 4 5 1015.0 1015.1 0.0
02/09:00pm 8.2 4.8 1.8 64 2.7 NW 9 13 5 7 1014.8 1014.9 0.0
02/08:30pm 8.4 6.0 2.0 64 2.8 NNW 4 7 2 4 1014.9 1015.0 0.0
02/08:00pm 8.4 5.0 1.8 63 2.8 NW 9 13 5 7 1014.9 1015.0 0.0
02/07:30pm 9.2 6.2 2.1 61 3.1 NW 7 11 4 6 1014.9 1015.0 0.0
02/07:00pm 8.8 5.4 1.9 62 3.0 NW 9 11 5 6 1015.0 1015.1 0.0
02/06:30pm 9.8 6.0 1.9 58 3.4 NW 11 15 6 8 1015.1 1015.2 0.0
02/06:00pm 10.6 7.2 1.7 54 3.9 WNW 9 17 5 9 1015.1 1015.2 0.0
02/05:30pm 10.8 7.4 2.1 55 3.8 NW 9 15 5 8 1014.8 1014.9 0.0
02/05:00pm 12.0 8.3 2.5 52 4.3 NW 11 19 6 10 1014.8 1014.9 0.0
02/04:30pm 13.0 8.5 2.3 48 4.8 NW 15 24 8 13 1014.4 1014.5 0.0
02/04:00pm 13.9 9.1 2.5 46 5.2 WNW 17 26 9 14 1014.1 1014.2 0.0
02/03:30pm 13.1 7.8 1.8 46 5.0 NW 19 33 10 18 1013.9 1014.0 0.0
02/03:00pm 15.0 9.8 2.5 43 5.8 NW 19 30 10 16 1013.7 1013.9 0.0
02/02:30pm 15.1 10.2 2.0 41 6.0 NW 17 35 9 19 1013.4 1013.5 0.0
02/02:00pm 15.1 9.1 0.9 38 6.3 NW 22 32 12 17 1013.9 1014.0 0.0
02/01:30pm 15.5 9.2 1.6 39 6.3 WNW 24 35 13 19 1014.3 1014.4 0.0
02/01:00pm 15.6 10.5 0.6 36 6.7 NW 17 24 9 13 1014.3 1014.4 0.0
02/12:30pm 15.4 10.7 0.8 37 6.5 NW 15 28 8 15 1014.7 1014.8 0.0
02/12:00pm 14.7 9.6 0.5 38 6.3 NNW 17 24 9 13 1014.9 1015.0 0.0
02/11:30am 14.3 9.8 -0.2 37 6.3 NW 13 22 7 12 1015.4 1015.6 0.0
02/11:00am 14.0 9.7 1.3 42 5.7 NNW 13 19 7 10 1016.0 1016.1 0.0
02/10:30am 12.9 9.2 0.0 41 5.5 NW 9 15 5 8 1016.2 1016.3 0.0
02/10:00am 11.9 8.5 1.8 50 4.5 WNW 9 15 5 8 1016.5 1016.6 0.0
02/09:30am 9.9 7.7 3.2 63 3.0 S 4 9 2 5 1017.0 1017.2 0.0
02/09:00am 9.1 7.7 3.5 68 2.5 CALM 0 4 0 2 1017.6 1017.7 1.4
02/08:30am 7.1 5.2 3.0 75 1.8 W 2 7 1 4 1017.8 1017.9 1.4
02/08:00am 4.9 3.2 2.1 82 1.2 CALM 0 0 0 0 1017.7 1017.8 1.4
02/07:30am 3.3 1.6 1.8 90 0.6 CALM 0 0 0 0 1017.5 1017.6 1.4
02/07:00am 1.3 -0.8 -0.5 88 0.7 CALM 0 0 0 0 1017.2 1017.4 1.4
02/06:30am 2.4 0.1 0.6 88 0.7 E 2 6 1 3 1016.9 1017.1 1.4
02/06:00am 2.7 0.4 0.1 83 1.0 ESE 2 7 1 4 1016.7 1016.9 1.4
02/05:30am 4.0 1.8 1.2 82 1.1 ESE 2 9 1 5 1016.3 1016.4 1.4
02/05:00am 4.9 2.3 1.0 76 1.6 SE 4 9 2 5 1016.1 1016.2 1.4
02/04:30am 7.0 3.2 1.7 69 2.2 N 11 15 6 8 1015.7 1015.8 1.4
02/04:00am 7.8 3.7 2.1 67 2.4 N 13 17 7 9 1015.4 1015.6 1.4
02/03:30am 8.8 4.6 1.9 62 3.0 NNE 13 19 7 10 1015.2 1015.4 1.4
02/03:00am 7.8 4.4 2.1 67 2.4 N 9 15 5 8 1015.3 1015.5 1.4
02/02:30am 7.7 4.3 2.0 67 2.4 N 9 13 5 7 1015.5 1015.7 1.4
02/02:00am 8.7 4.9 1.6 61 3.0 N 11 15 6 8 1015.7 1015.8 1.4
02/01:30am 9.7 6.8 1.6 57 3.5 SW 6 13 3 7 1015.8 1015.9 1.4
02/01:00am 10.0 5.4 1.6 56 3.6 W 15 30 8 16 1015.8 1015.9 1.4
02/12:30am 10.1 4.2 1.7 56 3.6 W 22 32 12 17 1015.8 1015.9 1.4
02/12:00am 9.9 4.0 1.8 57 3.5 W 22 32 12 17 1016.0 1016.1 1.4
 
Date/Time
EST
Tmp

°C
App
Tmp
°C
Dew
Point
°C
Rel
Hum
%
Delta-T

°C
Wind Press
QNH
hPa
Press
MSL
hPa
Rain
since
9 am
mm
Dir
 
Spd
km/h
Gust
km/h
Spd
kts
Gust
kts
01/11:30pm 10.3 5.4 1.7 55 3.7 WNW 17 28 9 15 1016.3 1016.4 1.4
01/11:00pm 10.0 6.3 2.1 58 3.5 NW 11 17 6 9 1016.3 1016.4 1.4
01/10:30pm 9.3 6.3 1.9 60 3.2 NW 7 11 4 6 1016.4 1016.5 1.4
01/10:00pm 9.8 6.5 2.6 61 3.2 W 9 13 5 7 1016.3 1016.4 1.4
01/09:30pm 10.0 8.1 2.6 60 3.3 WNW 2 7 1 4 1016.3 1016.4 1.4
01/09:00pm 11.1 8.3 3.2 58 3.6 NNW 7 15 4 8 1015.9 1016.0 1.4
01/08:30pm 11.5 8.3 3.3 57 3.7 WNW 9 15 5 8 1015.3 1015.5 1.4
01/08:00pm 12.0 7.4 3.5 56 3.9 WNW 17 33 9 18 1014.8 1014.9 1.4
01/07:30pm 12.3 6.7 3.5 55 4.1 WNW 22 41 12 22 1014.2 1014.3 1.4
01/07:11pm 12.7 6.0 3.4 53 4.3 WNW 28 46 15 25 1013.7 1013.9 1.4
01/07:00pm 12.7 5.5 3.1 52 4.4 WNW 30 44 16 24 1013.9 1014.0 1.4
01/06:30pm 13.1 5.6 3.2 51 4.6 WNW 32 46 17 25 1013.5 1013.6 1.4
01/06:00pm 13.4 6.2 2.9 49 4.8 WNW 30 50 16 27 1013.3 1013.4 1.4
01/05:32pm 13.7 6.2 3.5 50 4.8 WNW 32 50 17 27 1013.4 1013.5 1.4
01/05:30pm 13.8 6.1 3.3 49 4.9 WNW 33 50 18 27 1013.4 1013.5 1.4
01/05:12pm 14.0 7.2 2.9 47 5.1 WNW 28 46 15 25 1013.3 1013.4 1.4
01/05:00pm 14.5 8.0 2.4 44 5.5 WNW 26 39 14 21 1013.2 1013.3 1.4
01/04:41pm 15.1 7.8 2.6 43 5.8 WNW 30 50 16 27 1012.9 1013.0 1.4
01/04:30pm 15.5 8.6 2.7 42 5.9 WNW 28 43 15 23 1012.8 1012.9 1.4
01/04:00pm 16.0 8.5 3.4 43 6.0 WNW 32 52 17 28 1012.6 1012.7 1.4
01/03:32pm 16.7 10.3 3.1 40 6.4 WNW 26 46 14 25 1012.3 1012.3 1.4
01/03:30pm 17.2 10.9 3.5 40 6.6 WNW 26 43 14 23 1012.3 1012.3 1.4
01/03:09pm 16.7 10.2 2.7 39 6.6 WNW 26 52 14 28 1012.1 1012.1 1.4
01/03:00pm 17.8 11.7 2.9 37 7.1 WNW 24 37 13 20 1011.8 1011.9 1.4
01/02:41pm 18.3 11.3 2.2 34 7.6 WNW 28 48 15 26 1011.5 1011.6 1.4
01/02:30pm 18.6 13.0 3.6 37 7.3 WNW 22 37 12 20 1011.3 1011.4 1.4
01/02:00pm 18.4 10.9 4.2 39 7.0 WNW 33 56 18 30 1010.9 1011.0 1.4
01/01:30pm 18.6 11.3 4.4 39 7.0 WNW 32 57 17 31 1010.4 1010.4 1.4
01/01:15pm 18.9 11.3 3.9 37 7.3 WNW 33 69 18 37 1010.4 1010.4 1.4
01/01:01pm 19.3 12.9 5.0 39 7.2 WNW 28 48 15 26 1010.4 1010.4 1.4
01/01:00pm 19.4 13.1 5.8 41 6.9 WNW 28 44 15 24 1010.4 1010.4 1.4
01/12:35pm 19.5 13.6 7.6 46 6.3 WNW 28 46 15 25 1010.8 1010.8 1.4
01/12:30pm 18.8 11.3 6.3 44 6.4 WNW 35 50 19 27 1010.8 1010.8 1.4
01/12:01pm 19.9 14.0 7.6 45 6.5 NW 28 57 15 31 1011.0 1011.1 1.4
01/12:00pm 20.2 14.8 7.9 45 6.6 WNW 26 57 14 31 1010.9 1011.0 1.4
01/11:30am 19.6 12.9 7.4 45 6.4 NW 32 56 17 30 1011.2 1011.3 1.2
01/11:00am 19.5 13.0 8.8 50 5.8 NW 33 54 18 29 1011.4 1011.5 1.0
01/10:30am 19.7 14.6 10.7 56 5.0 WNW 28 46 15 25 1011.5 1011.6 0.8
01/10:08am 19.4 14.5 11.2 59 4.6 WNW 28 46 15 25 1011.6 1011.7 0.6
01/10:00am 19.7 15.4 12.0 61 4.4 WNW 26 37 14 20 1011.7 1011.8 0.6
01/09:38am 18.8 13.9 11.4 62 4.2 WNW 28 46 15 25 1012.1 1011.0 0.4
01/09:30am 18.9 14.9 11.9 64 4.0 WNW 24 37 13 20 1012.1 1011.0 0.4
01/09:07am 18.7 14.0 12.0 65 3.8 WNW 28 46 15 25 1011.9 1010.9 0.2
01/09:00am 18.3 14.1 12.3 68 3.4 WNW 26 46 14 25 1011.8 1010.8 3.6
01/08:57am 18.3 13.8 12.7 70 3.2 WNW 28 46 15 25 1011.8 1010.8 3.6
01/08:30am 17.6 15.4 14.9 84 1.6 NW 20 35 11 19 1011.6 1010.6 3.4
01/08:00am 16.4 15.2 16.1 98 0.2 NNW 17 30 9 16 1011.2 1010.2 3.0
01/07:30am 15.4 14.3 15.4 100 0.0 NNW 15 28 8 15 1011.6 1010.6 2.8
01/07:00am 15.2 13.2 15.0 99 0.1 NNW 19 30 10 16 1011.8 1010.8 2.4
01/06:30am 15.1 13.5 15.1 100 0.0 N 17 26 9 14 1011.9 1010.9 2.0
01/06:00am 15.3 13.8 15.3 100 0.0 N 17 28 9 15 1012.3 1011.3 1.6
01/05:30am 15.2 14.4 15.2 100 0.0 N 13 22 7 12 1011.8 1010.8 1.2
01/05:00am 15.0 14.2 15.0 100 0.0 N 13 20 7 11 1013.0 1012.0 0.8
01/04:30am 14.6 13.2 14.6 100 0.0 N 15 24 8 13 1012.9 1011.9 0.4
01/04:00am 11.9 12.1 11.9 100 0.0 SW 2 7 1 4 1013.1 1012.1 0.2
01/03:30am 11.5 12.0 11.5 100 0.0 CALM 0 0 0 0 1013.0 1012.0 0.0
01/03:00am 10.5 10.7 10.5 100 0.0 CALM 0 0 0 0 1013.2 1012.2 0.0
01/02:30am 10.6 10.8 10.4 99 0.1 CALM 0 0 0 0 1013.6 1012.7 0.0
01/02:00am 11.4 11.8 11.4 100 0.0 CALM 0 0 0 0 1013.9 1012.9 0.0
01/01:30am 11.4 11.8 11.2 99 0.1 CALM 0 0 0 0 1014.5 1013.5 0.0
01/01:00am 12.1 12.7 11.8 98 0.2 CALM 0 0 0 0 1015.1 1014.2 0.0
01/12:30am 12.9 12.6 12.7 99 0.1 ENE 6 9 3 5 1015.2 1014.3 0.0
01/12:00am 12.6 13.4 12.4 99 0.1 CALM 0 2 0 1 1015.9 1014.9 0.0
 
Date/Time
EST
Tmp

°C
App
Tmp
°C
Dew
Point
°C
Rel
Hum
%
Delta-T

°C
Wind Press
QNH
hPa
Press
MSL
hPa
Rain
since
9 am
mm
Dir
 
Spd
km/h
Gust
km/h
Spd
kts
Gust
kts
30/11:30pm 12.3 13.0 12.1 99 0.1 CALM 0 0 0 0 1016.6 1015.7 0.0
30/11:00pm 12.4 11.7 11.5 94 0.5 E 6 9 3 5 1016.9 1016.0 0.0
30/10:30pm 12.7 12.1 12.2 97 0.3 E 7 11 4 6 1017.3 1016.4 0.0
30/10:00pm 12.6 12.5 12.1 97 0.3 E 4 7 2 4 1017.7 1016.7 0.0
30/09:30pm 12.8 12.9 11.4 91 0.8 ENE 2 7 1 4 1017.7 1016.7 0.0
30/09:00pm 13.7 14.4 12.3 91 0.8 CALM 0 0 0 0 1017.7 1016.7 0.0
30/08:30pm 14.4 14.9 11.6 83 1.5 CALM 0 0 0 0 1017.7 1016.7 0.0
30/08:00pm 15.9 15.4 12.8 82 1.8 N 7 9 4 5 1017.6 1016.6 0.0
30/07:30pm 16.6 16.2 12.9 79 2.1 NNW 7 11 4 6 1017.6 1016.6 0.0
30/07:00pm 17.1 16.6 12.8 76 2.5 NNW 7 13 4 7 1017.5 1016.5 0.0
30/06:30pm 17.7 17.0 13.2 75 2.6 NNW 9 17 5 9 1017.6 1016.6 0.0
30/06:00pm 17.9 17.4 12.6 71 3.0 NNW 7 11 4 6 1017.2 1016.3 0.0
30/05:30pm 18.7 17.4 12.5 67 3.6 NNW 11 15 6 8 1017.0 1016.1 0.0
30/05:00pm 20.0 18.4 11.5 58 4.8 WNW 11 19 6 10 1016.8 1015.9 0.0
30/04:30pm 21.2 19.4 12.1 56 5.2 WNW 13 22 7 12 1016.9 1016.0 0.0
30/04:00pm 21.4 19.0 11.4 53 5.7 NW 15 24 8 13 1016.7 1015.8 0.0
30/03:30pm 21.9 19.9 11.6 52 5.9 NW 13 20 7 11 1016.7 1015.8 0.0
30/03:00pm 22.0 19.7 11.7 52 5.9 NW 15 24 8 13 1016.8 1015.9 0.0
30/02:30pm 22.2 19.0 11.3 50 6.2 WNW 19 26 10 14 1016.8 1015.9 0.0
30/02:00pm 22.7 21.3 12.3 52 6.1 WNW 11 19 6 10 1016.9 1016.0 0.0
30/01:30pm 22.0 20.5 12.0 53 5.8 NW 11 17 6 9 1016.9 1016.0 0.0
30/01:00pm 21.5 19.8 12.6 57 5.2 NW 13 20 7 11 1017.3 1016.4 0.0
30/12:30pm 20.5 20.0 13.7 65 4.0 NW 9 17 5 9 1017.8 1016.8 0.0
30/12:00pm 20.1 18.8 13.6 66 3.8 NNW 13 20 7 11 1018.4 1017.5 0.0
30/11:30am 19.1 17.4 13.5 70 3.3 NNW 15 22 8 12 1018.9 1018.0 0.0
30/11:00am 18.9 17.8 14.4 75 2.7 NNW 13 19 7 10 1019.4 1018.4 0.0
30/10:30am 17.5 16.8 14.2 81 1.9 N 11 19 6 10 1019.7 1018.8 0.0
30/10:00am 17.3 16.5 14.0 81 1.9 NNW 11 17 6 9 1019.8 1018.9 0.0
30/09:30am 16.9 16.2 14.4 85 1.5 NW 11 15 6 8 1019.8 1018.9 0.0

Latest Capital City Observations: Canberra | Sydney | Melbourne | Brisbane | Adelaide | Perth | Hobart | Darwin

Other Formats:

Comma delimited format used in spreadsheet applications
http://www.bom.gov.au/fwo/IDN60903/IDN60903.94925.axf

JavaScript Object Notation format (JSON) in row-major order
http://www.bom.gov.au/fwo/IDN60903/IDN60903.94925.json